Time;durP1;ratioP1;P1;durP2;ratioP2;P2;SDS_P1;SDS_P2;PMS_P1;PMS_P2;Temp;Humidity;BMP_temperature;BMP_pressure;BME280_temperature;BME280_humidity;BME280_pressure;Samples;Min_cycle;Max_cycle;Signal;HPM_P1;HPM_P2
2022/10/26 00:01:22;;;;;;;12.93;5.28;;;11.40;99.90;;;;;;4216051;28;20126;-88
2022/10/26 00:03:22;;;;;;;9.77;4.68;;;11.30;99.90;;;;;;4215184;28;20083;-88
2022/10/26 00:05:23;;;;;;;13.63;5.60;;;11.30;99.90;;;;;;4216212;28;20102;-89
2022/10/26 00:07:24;;;;;;;20.20;6.32;;;11.30;99.90;;;;;;4215629;28;20048;-89
2022/10/26 00:09:25;;;;;;;10.43;5.28;;;11.30;99.90;;;;;;4232689;28;20516;-88
2022/10/26 00:11:27;;;;;;;8.30;4.55;;;11.30;99.90;;;;;;4233820;28;20032;-88
2022/10/26 00:13:27;;;;;;;11.40;5.18;;;11.30;99.90;;;;;;4214883;28;20058;-88
2022/10/26 00:15:28;;;;;;;18.02;5.82;;;11.30;99.90;;;;;;4231962;28;20083;-88
2022/10/26 00:17:29;;;;;;;15.85;5.35;;;11.30;99.90;;;;;;4231389;28;20047;-88
2022/10/26 00:19:34;;;;;;;11.32;5.15;;;11.30;99.90;;;;;;4233367;28;20090;-89
2022/10/26 00:21:36;;;;;;;13.60;6.15;;;11.30;99.90;;;;;;4233847;28;20046;-88
2022/10/26 00:23:38;;;;;;;11.75;5.22;;;11.20;99.90;;;;;;4235260;28;20406;-89
2022/10/26 00:25:38;;;;;;;12.63;5.03;;;11.20;99.90;;;;;;4234793;28;20079;-87
2022/10/26 00:27:39;;;;;;;10.95;5.05;;;11.20;99.90;;;;;;4232708;28;20047;-89
2022/10/26 00:29:41;;;;;;;11.38;5.00;;;11.10;99.90;;;;;;4233359;28;20039;-89
2022/10/26 00:31:42;;;;;;;10.18;4.78;;;11.10;99.90;;;;;;4232578;28;20101;-89
2022/10/26 00:33:43;;;;;;;9.88;5.93;;;11.10;99.90;;;;;;4233982;28;20039;-88
2022/10/26 00:35:48;;;;;;;17.83;5.65;;;11.10;99.90;;;;;;4232742;28;20036;-89
2022/10/26 00:37:54;;;;;;;9.93;5.28;;;11.10;99.90;;;;;;4233744;28;20040;-89
2022/10/26 00:39:54;;;;;;;9.50;4.70;;;11.00;99.90;;;;;;4233267;28;20047;-89
2022/10/26 00:41:55;;;;;;;9.25;5.22;;;11.00;99.90;;;;;;4232327;28;20054;-88
2022/10/26 00:43:56;;;;;;;11.88;5.05;;;11.00;99.90;;;;;;4233452;28;20042;-88
2022/10/26 00:45:58;;;;;;;10.63;4.55;;;11.00;99.90;;;;;;4232976;28;20047;-88
2022/10/26 00:48:06;;;;;;;9.38;4.82;;;11.00;99.90;;;;;;4232851;28;20059;-88
2022/10/26 00:50:34;;;;;;;9.65;4.68;;;11.00;99.90;;;;;;4233020;28;20070;-87
2022/10/26 00:52:35;;;;;;;15.68;5.45;;;10.90;99.90;;;;;;4232768;28;20047;-87
2022/10/26 00:54:36;;;;;;;10.35;4.82;;;10.90;99.90;;;;;;4232714;28;20094;-89
2022/10/26 00:56:39;;;;;;;13.90;5.75;;;10.90;99.90;;;;;;4233139;28;20055;-89
2022/10/26 00:58:42;;;;;;;10.63;5.25;;;10.90;99.90;;;;;;4233263;28;20044;-88
2022/10/26 01:00:44;;;;;;;17.27;5.30;;;10.80;99.90;;;;;;4233854;28;20039;-88
2022/10/26 01:02:47;;;;;;;19.13;5.88;;;10.80;99.90;;;;;;4233618;28;20047;-88
2022/10/26 01:04:49;;;;;;;11.60;5.60;;;10.70;99.90;;;;;;4232623;28;20093;-88
2022/10/26 01:06:51;;;;;;;11.23;5.05;;;10.70;99.90;;;;;;4232209;28;20401;-88
2022/10/26 01:08:53;;;;;;;10.52;5.75;;;10.70;99.90;;;;;;4232248;28;20054;-88
2022/10/26 01:10:57;;;;;;;10.75;5.35;;;10.70;99.90;;;;;;4230827;28;20044;-88
2022/10/26 01:12:58;;;;;;;13.70;5.82;;;10.70;99.90;;;;;;4231130;28;20074;-88
2022/10/26 01:14:59;;;;;;;14.57;5.55;;;10.70;99.90;;;;;;4231259;28;20635;-88
2022/10/26 01:17:38;;;;;;;10.85;5.30;;;10.70;99.90;;;;;;4214567;28;20070;-88
2022/10/26 01:20:12;;;;;;;13.82;5.50;;;10.70;99.90;;;;;;4230944;28;20055;-88
2022/10/26 01:22:22;;;;;;;13.20;5.30;;;10.60;99.90;;;;;;4215003;28;20047;-87
2022/10/26 01:24:59;;;;;;;15.27;5.45;;;10.60;99.90;;;;;;4231522;28;20043;-89
2022/10/26 01:27:21;;;;;;;13.82;5.70;;;10.60;99.90;;;;;;4231270;28;20055;-88
2022/10/26 01:29:46;;;;;;;18.40;5.70;;;10.60;99.90;;;;;;4230935;28;20055;-89
2022/10/26 01:32:15;;;;;;;12.15;5.57;;;10.60;99.90;;;;;;4214477;28;20076;-88
2022/10/26 01:34:27;;;;;;;19.05;6.07;;;10.60;99.90;;;;;;4234079;27;20063;-89
2022/10/26 01:36:43;;;;;;;17.05;5.65;;;10.50;99.90;;;;;;4231113;28;20087;-89
2022/10/26 01:39:15;;;;;;;15.30;6.38;;;10.50;99.90;;;;;;4214245;28;20048;-89
2022/10/26 01:41:24;;;;;;;10.20;5.82;;;10.50;99.90;;;;;;4230845;28;20058;-88
2022/10/26 01:43:29;;;;;;;17.58;7.13;;;10.50;99.90;;;;;;4231672;28;20043;-88
2022/10/26 01:45:32;;;;;;;12.63;5.90;;;10.40;99.90;;;;;;4214616;28;20076;-87
2022/10/26 01:47:36;;;;;;;13.27;5.82;;;10.40;99.90;;;;;;4231677;28;20047;-88
2022/10/26 01:49:42;;;;;;;14.40;6.28;;;10.40;99.90;;;;;;4231475;28;20430;-88
2022/10/26 01:51:45;;;;;;;13.95;7.13;;;10.40;99.90;;;;;;4230694;28;20478;-89
2022/10/26 01:53:46;;;;;;;16.88;6.68;;;10.30;99.90;;;;;;4231206;28;20444;-88
2022/10/26 01:55:51;;;;;;;16.65;6.43;;;10.30;99.90;;;;;;4231061;28;20047;-88
2022/10/26 01:57:56;;;;;;;11.45;6.45;;;10.30;99.90;;;;;;4230898;28;20108;-88
2022/10/26 02:00:06;;;;;;;14.77;6.43;;;10.30;99.90;;;;;;4214379;28;20059;-88
2022/10/26 02:02:28;;;;;;;11.02;6.45;;;10.20;99.90;;;;;;4231318;28;20062;-87
2022/10/26 02:05:02;;;;;;;12.23;6.07;;;10.20;99.90;;;;;;4232137;28;20051;-88
2022/10/26 02:07:11;;;;;;;11.65;6.72;;;10.20;99.90;;;;;;4230849;28;20510;-88
2022/10/26 02:09:37;;;;;;;12.95;6.82;;;10.20;99.90;;;;;;4214667;28;20062;-88
2022/10/26 02:11:43;;;;;;;19.38;6.22;;;10.10;99.90;;;;;;4215215;28;20099;-88
2022/10/26 02:14:25;;;;;;;16.17;6.82;;;10.10;99.90;;;;;;4231911;28;20035;-88
2022/10/26 02:16:57;;;;;;;16.08;6.90;;;10.00;99.90;;;;;;4231005;28;20522;-88
2022/10/26 02:19:06;;;;;;;14.15;6.93;;;10.00;99.90;;;;;;4206561;28;20095;-90
2022/10/26 02:21:14;;;;;;;;;;;10.00;99.90;;;;;;4231656;28;20043;-88
2022/10/26 02:23:16;;;;;;;13.10;6.43;;;10.00;99.90;;;;;;4230707;28;19985;-88
2022/10/26 02:25:27;;;;;;;15.35;6.20;;;10.00;99.90;;;;;;4231324;28;20043;-88
2022/10/26 02:27:35;;;;;;;18.77;7.40;;;9.90;99.90;;;;;;4230154;28;20084;-88
2022/10/26 02:29:38;;;;;;;14.93;7.32;;;9.90;99.90;;;;;;4231874;28;20081;-88
2022/10/26 02:31:41;;;;;;;18.00;7.65;;;9.90;99.90;;;;;;4231361;28;20497;-87
2022/10/26 02:33:47;;;;;;;13.75;6.68;;;9.80;99.90;;;;;;4231441;28;20506;-87
2022/10/26 02:35:51;;;;;;;15.90;6.95;;;9.80;99.90;;;;;;4230698;28;20051;-88
2022/10/26 02:37:54;;;;;;;15.82;6.45;;;9.80;99.90;;;;;;4213542;28;20486;-88
2022/10/26 02:40:01;;;;;;;15.77;7.13;;;9.80;99.90;;;;;;4230701;28;20558;-88
2022/10/26 02:42:05;;;;;;;15.25;7.57;;;9.80;99.90;;;;;;4231346;28;20043;-88
2022/10/26 02:44:25;;;;;;;17.30;7.30;;;9.80;99.90;;;;;;4230299;28;20048;-88
2022/10/26 02:46:27;;;;;;;17.63;7.35;;;9.80;99.90;;;;;;4230317;28;20044;-88
2022/10/26 02:48:29;;;;;;;17.85;7.10;;;9.70;99.90;;;;;;4213757;28;20076;-88
2022/10/26 02:50:43;;;;;;;19.80;8.20;;;9.70;99.90;;;;;;4230319;28;20046;-88
2022/10/26 02:53:16;;;;;;;15.25;7.78;;;9.70;99.90;;;;;;4215106;28;20055;-88
2022/10/26 02:55:39;;;;;;;16.80;8.00;;;9.70;99.90;;;;;;4230168;28;20056;-89
2022/10/26 02:57:43;;;;;;;22.77;8.60;;;9.70;99.90;;;;;;4214091;28;20113;-88
2022/10/26 02:59:46;;;;;;;19.60;8.75;;;9.60;99.90;;;;;;4230474;28;20446;-88
2022/10/26 03:01:49;;;;;;;23.15;8.95;;;9.60;99.90;;;;;;4230884;28;20051;-89
2022/10/26 03:03:50;;;;;;;19.42;8.02;;;9.90;99.90;;;;;;4230183;28;20043;-89
2022/10/26 03:05:51;;;;;;;20.92;8.55;;;9.60;99.90;;;;;;4231136;28;20543;-89
2022/10/26 03:07:52;;;;;;;18.52;8.43;;;9.60;99.90;;;;;;4216453;28;20135;-89
2022/10/26 03:09:52;;;;;;;15.63;8.05;;;9.60;99.90;;;;;;4234009;28;20047;-89
2022/10/26 03:11:54;;;;;;;20.23;8.38;;;9.90;99.90;;;;;;4233864;28;20642;-89
2022/10/26 03:13:56;;;;;;;16.15;7.18;;;9.50;99.90;;;;;;4232831;28;20101;-89
2022/10/26 03:15:56;;;;;;;14.80;8.32;;;9.60;99.90;;;;;;4233559;28;20106;-89
2022/10/26 03:17:57;;;;;;;13.25;7.20;;;9.50;99.90;;;;;;4234153;28;20416;-89
2022/10/26 03:19:58;;;;;;;16.35;8.93;;;9.50;99.90;;;;;;4233523;28;20083;-89
2022/10/26 03:21:58;;;;;;;18.98;8.63;;;10.00;99.90;;;;;;4215660;28;20501;-89
2022/10/26 03:23:59;;;;;;;19.40;8.45;;;9.50;99.90;;;;;;4234274;28;20073;-89
2022/10/26 03:26:00;;;;;;;17.85;8.20;;;9.70;99.90;;;;;;4233640;28;20547;-89
2022/10/26 03:28:02;;;;;;;15.52;8.13;;;9.50;99.90;;;;;;4232742;28;20494;-89
2022/10/26 03:30:03;;;;;;;14.93;8.18;;;9.50;99.90;;;;;;4235046;28;20047;-89
2022/10/26 03:32:05;;;;;;;18.55;7.85;;;9.50;99.90;;;;;;4215869;28;20048;-88
2022/10/26 03:34:07;;;;;;;18.05;8.65;;;9.50;99.90;;;;;;4216340;28;20053;-89
2022/10/26 03:36:08;;;;;;;14.30;6.78;;;9.50;99.90;;;;;;4234398;28;20604;-89
2022/10/26 03:38:09;;;;;;;20.58;7.70;;;9.50;99.90;;;;;;4234387;28;20039;-89
2022/10/26 03:40:10;;;;;;;13.98;7.25;;;9.50;99.90;;;;;;4216324;28;20083;-89
2022/10/26 03:42:12;;;;;;;17.20;8.30;;;9.50;99.90;;;;;;4232620;28;20044;-89
2022/10/26 03:44:13;;;;;;;13.60;7.38;;;9.50;99.90;;;;;;4233398;28;20036;-89
2022/10/26 03:46:14;;;;;;;15.95;7.57;;;9.40;99.90;;;;;;4233063;28;20131;-91
2022/10/26 03:48:15;;;;;;;16.70;7.28;;;9.40;99.90;;;;;;4232931;28;20058;-89
2022/10/26 03:50:18;;;;;;;19.17;7.90;;;9.40;99.90;;;;;;4232463;28;20052;-89
2022/10/26 03:52:22;;;;;;;20.10;8.27;;;9.40;99.90;;;;;;4234311;28;20051;-89
2022/10/26 03:54:24;;;;;;;14.45;7.63;;;9.40;99.90;;;;;;4215868;28;20573;-89
2022/10/26 03:56:25;;;;;;;13.73;7.90;;;8.80;99.90;;;;;;4233824;28;20480;-89
2022/10/26 03:58:26;;;;;;;14.70;8.70;;;9.40;99.90;;;;;;4234617;28;20039;-89
2022/10/26 04:00:27;;;;;;;16.20;8.27;;;9.40;99.90;;;;;;4232289;28;20139;-89
2022/10/26 04:02:29;;;;;;;15.30;8.38;;;9.40;99.90;;;;;;4232964;28;20055;-90
2022/10/26 04:04:29;;;;;;;19.10;8.93;;;9.40;99.90;;;;;;4232527;28;20050;-89
2022/10/26 04:06:30;;;;;;;19.23;8.80;;;9.40;99.90;;;;;;4216158;28;20119;-89
2022/10/26 04:08:32;;;;;;;15.95;8.30;;;9.40;99.90;;;;;;4216362;28;20539;-89
2022/10/26 04:10:33;;;;;;;19.55;8.65;;;9.40;99.90;;;;;;4233363;27;20053;-88
2022/10/26 04:12:38;;;;;;;17.30;8.68;;;9.40;99.90;;;;;;4215791;28;20797;-89
2022/10/26 04:14:39;;;;;;;24.73;8.85;;;9.40;99.90;;;;;;4232853;28;20443;-89
2022/10/26 04:16:41;;;;;;;19.52;8.52;;;9.40;99.90;;;;;;4232162;28;20079;-89
2022/10/26 04:18:42;;;;;;;19.23;8.25;;;9.40;99.90;;;;;;4214510;28;20066;-89
2022/10/26 04:20:42;;;;;;;18.42;8.77;;;9.40;99.90;;;;;;4215477;28;20456;-89
2022/10/26 04:22:44;;;;;;;18.35;9.02;;;9.40;99.90;;;;;;4215905;28;20559;-89
2022/10/26 04:24:45;;;;;;;15.35;7.70;;;9.40;99.90;;;;;;4236230;28;20044;-88
2022/10/26 04:26:45;;;;;;;22.92;9.98;;;9.50;99.90;;;;;;4222353;28;20066;-88
2022/10/26 04:28:46;;;;;;;19.33;9.45;;;9.50;99.90;;;;;;4234165;28;20158;-89
2022/10/26 04:30:47;;;;;;;19.77;8.98;;;9.50;99.90;;;;;;4233845;28;20125;-88
2022/10/26 04:32:48;;;;;;;18.35;8.98;;;9.50;99.90;;;;;;4232352;28;20041;-89
2022/10/26 04:34:52;;;;;;;15.88;8.35;;;9.50;99.90;;;;;;4215630;28;20050;-88
2022/10/26 04:36:54;;;;;;;17.73;8.90;;;9.50;99.90;;;;;;4233563;28;20065;-88
2022/10/26 04:38:54;;;;;;;19.13;8.98;;;9.50;99.90;;;;;;4232976;28;20075;-88
2022/10/26 04:40:55;;;;;;;17.98;8.45;;;9.50;99.90;;;;;;4233462;28;20043;-88
2022/10/26 04:42:56;;;;;;;21.08;8.88;;;9.50;99.90;;;;;;4232674;28;20157;-88
2022/10/26 04:44:57;;;;;;;24.45;11.18;;;9.50;99.90;;;;;;4232267;28;20044;-88
2022/10/26 04:46:59;;;;;;;21.20;9.38;;;9.50;99.90;;;;;;4231338;28;20052;-88
2022/10/26 04:48:59;;;;;;;31.00;9.77;;;9.50;99.90;;;;;;4231796;28;20036;-88
2022/10/26 04:51:00;;;;;;;21.60;8.73;;;9.50;99.90;;;;;;4231748;28;20048;-88
2022/10/26 04:53:02;;;;;;;22.15;9.20;;;9.50;99.90;;;;;;4233320;28;20040;-89
2022/10/26 04:55:06;;;;;;;17.98;8.93;;;9.50;99.90;;;;;;4215864;28;20126;-89
2022/10/26 04:57:07;;;;;;;20.58;9.40;;;9.50;99.90;;;;;;4214474;28;20047;-89
2022/10/26 04:59:07;;;;;;;25.33;9.20;;;9.50;99.90;;;;;;4231919;28;20047;-89
2022/10/26 05:01:08;;;;;;;14.60;8.57;;;9.50;99.90;;;;;;4235637;28;20166;-89
2022/10/26 05:03:09;;;;;;;20.13;8.57;;;9.50;99.90;;;;;;4232843;28;20444;-89
2022/10/26 05:05:10;;;;;;;17.02;8.85;;;9.60;99.90;;;;;;4231953;28;20082;-89
2022/10/26 05:07:11;;;;;;;24.63;9.20;;;9.60;99.90;;;;;;4214260;28;20044;-89
2022/10/26 05:09:11;;;;;;;17.40;8.82;;;9.60;99.90;;;;;;4216247;28;20055;-89
2022/10/26 05:11:12;;;;;;;16.58;9.35;;;9.70;99.90;;;;;;4231125;28;20044;-89
2022/10/26 05:13:13;;;;;;;18.83;8.60;;;9.70;99.90;;;;;;4214640;28;20527;-89
2022/10/26 05:15:14;;;;;;;21.45;9.65;;;9.70;99.90;;;;;;4213834;28;20430;-89
2022/10/26 05:17:14;;;;;;;16.27;8.57;;;9.70;99.90;;;;;;4232857;28;20051;-88
2022/10/26 05:19:15;;;;;;;17.75;8.85;;;9.70;99.90;;;;;;4232500;28;20478;-88
2022/10/26 05:21:18;;;;;;;24.73;10.25;;;9.70;99.90;;;;;;4233092;28;20032;-89
2022/10/26 05:23:21;;;;;;;20.50;8.52;;;9.80;99.90;;;;;;4233149;28;20436;-88
2022/10/26 05:25:23;;;;;;;17.30;8.48;;;9.80;99.90;;;;;;4230278;28;20497;-89
2022/10/26 05:27:24;;;;;;;23.08;9.23;;;9.80;99.90;;;;;;4231538;28;20051;-89
2022/10/26 05:29:25;;;;;;;19.35;8.55;;;9.80;99.90;;;;;;4230798;28;20605;-88
2022/10/26 05:31:26;;;;;;;22.27;9.30;;;9.80;99.90;;;;;;4232074;28;20044;-87
2022/10/26 05:33:26;;;;;;;29.40;9.68;;;9.80;99.90;;;;;;4232156;28;20047;-88
2022/10/26 05:35:29;;;;;;;19.02;8.38;;;9.80;99.90;;;;;;4231494;28;20493;-89
2022/10/26 05:37:30;;;;;;;28.33;9.73;;;9.80;99.90;;;;;;4232079;28;20043;-88
2022/10/26 05:39:31;;;;;;;19.80;8.88;;;9.90;99.90;;;;;;4214642;28;20047;-88
2022/10/26 05:41:32;;;;;;;18.50;9.48;;;9.90;99.90;;;;;;4231698;28;20155;-88
2022/10/26 05:43:33;;;;;;;18.98;9.77;;;9.90;99.90;;;;;;4231441;28;20043;-88
2022/10/26 05:45:33;;;;;;;20.45;9.90;;;9.90;99.90;;;;;;4214470;28;20052;-88
2022/10/26 05:47:41;;;;;;;17.88;8.95;;;9.90;99.90;;;;;;4231112;28;20035;-89
2022/10/26 05:49:43;;;;;;;18.60;9.57;;;9.90;99.90;;;;;;4235626;28;20127;-88
2022/10/26 05:51:44;;;;;;;24.15;9.93;;;10.00;99.90;;;;;;4231216;28;20101;-88
2022/10/26 05:53:45;;;;;;;17.45;8.80;;;10.00;99.90;;;;;;4231649;28;20474;-88
2022/10/26 05:55:45;;;;;;;20.75;9.60;;;10.00;99.90;;;;;;4231233;28;20184;-87
2022/10/26 05:57:49;;;;;;;18.40;8.88;;;10.00;99.90;;;;;;4213772;28;20573;-88
2022/10/26 05:59:50;;;;;;;22.27;8.90;;;10.00;99.90;;;;;;4239980;28;20625;-89
2022/10/26 06:02:25;;;;;;;18.65;8.98;;;10.10;99.90;;;;;;4234169;28;20051;-88
2022/10/26 06:04:42;;;;;;;14.82;7.85;;;10.00;99.90;;;;;;4230929;28;20104;-88
2022/10/26 06:06:45;;;;;;;16.13;7.78;;;10.10;99.90;;;;;;4230734;28;20661;-89
2022/10/26 06:08:46;;;;;;;18.27;8.75;;;10.10;99.90;;;;;;4233137;28;20062;-88
2022/10/26 06:10:48;;;;;;;16.55;9.10;;;10.10;99.90;;;;;;4230318;28;20529;-89
2022/10/26 06:12:50;;;;;;;16.02;7.53;;;10.10;99.90;;;;;;4231678;28;20082;-88
2022/10/26 06:14:51;;;;;;;19.65;8.60;;;10.10;99.90;;;;;;4232252;28;20516;-88
2022/10/26 06:17:00;;;;;;;19.63;8.38;;;10.10;99.90;;;;;;4230589;28;20040;-89
2022/10/26 06:19:37;;;;;;;20.23;9.27;;;10.10;99.90;;;;;;4231293;28;20065;-88
2022/10/26 06:21:53;;;;;;;20.27;8.50;;;10.10;99.90;;;;;;4214263;28;20063;-89
2022/10/26 06:24:03;;;;;;;15.23;8.07;;;10.10;99.90;;;;;;4214373;28;20075;-88
2022/10/26 06:26:28;;;;;;;17.95;8.63;;;10.20;99.90;;;;;;4230810;28;20066;-88
2022/10/26 06:28:46;;;;;;;15.75;8.00;;;10.20;99.90;;;;;;4231406;28;20209;-89
2022/10/26 06:30:49;;;;;;;21.52;9.13;;;10.20;99.90;;;;;;4231063;28;20075;-88
2022/10/26 06:32:54;;;;;;;19.15;8.02;;;10.20;99.90;;;;;;4214277;28;20048;-89
2022/10/26 06:35:04;;;;;;;12.95;7.38;;;10.30;99.90;;;;;;4232718;28;20079;-88
2022/10/26 06:37:07;;;;;;;17.48;8.13;;;10.30;99.90;;;;;;4231732;28;20132;-88
2022/10/26 06:39:11;;;;;;;13.43;6.85;;;10.30;99.90;;;;;;4232393;28;20557;-88
2022/10/26 06:41:14;;;;;;;14.93;7.43;;;10.30;99.90;;;;;;4231818;28;20048;-89
2022/10/26 06:43:24;;;;;;;16.98;7.65;;;10.30;99.90;;;;;;4234858;28;20117;-88
2022/10/26 06:45:25;;;;;;;20.38;8.20;;;10.40;99.90;;;;;;4234328;28;20047;-88
2022/10/26 06:47:59;;;;;;;17.75;8.05;;;10.40;99.90;;;;;;4234808;28;20398;-89
2022/10/26 06:50:23;;;;;;;14.13;7.20;;;10.40;99.90;;;;;;4246042;28;20055;-89
2022/10/26 06:52:27;;;;;;;14.68;7.10;;;10.40;99.90;;;;;;4241050;28;20056;-89
2022/10/26 06:54:47;;;;;;;15.38;6.88;;;10.40;99.90;;;;;;4239285;28;20536;-89
2022/10/26 06:56:48;;;;;;;15.05;7.55;;;10.40;99.90;;;;;;4235595;28;20085;-89
2022/10/26 06:58:53;;;;;;;18.52;7.38;;;10.50;99.90;;;;;;4233197;28;20051;-89
2022/10/26 07:00:55;;;;;;;20.25;7.75;;;10.50;99.90;;;;;;4216962;28;20109;-89
2022/10/26 07:02:57;;;;;;;18.90;7.57;;;10.50;99.90;;;;;;4217835;28;20052;-88
2022/10/26 07:04:58;;;;;;;13.85;6.40;;;10.50;99.90;;;;;;4234469;28;20058;-89
2022/10/26 07:07:00;;;;;;;20.67;7.70;;;10.50;99.90;;;;;;4226661;28;20048;-88
2022/10/26 07:09:01;;;;;;;18.73;8.00;;;10.50;99.90;;;;;;4222966;28;20050;-88
2022/10/26 07:11:03;;;;;;;14.30;7.28;;;10.50;99.90;;;;;;4217768;28;20048;-88
2022/10/26 07:13:08;;;;;;;15.55;7.47;;;10.60;99.90;;;;;;4234385;28;20079;-88
2022/10/26 07:15:09;;;;;;;14.40;7.03;;;10.60;99.90;;;;;;4235963;28;20098;-88
2022/10/26 07:17:13;;;;;;;16.35;7.38;;;10.60;99.90;;;;;;4235720;28;20078;-88
2022/10/26 07:19:14;;;;;;;21.63;7.63;;;10.60;99.90;;;;;;4239655;28;20429;-88
2022/10/26 07:21:16;;;;;;;15.80;6.72;;;10.60;99.90;;;;;;4241782;28;20051;-88
2022/10/26 07:23:22;;;;;;;13.88;7.18;;;10.70;99.90;;;;;;4240178;28;20410;-89
2022/10/26 07:25:25;;;;;;;16.15;7.50;;;9.80;99.90;;;;;;4221937;28;20582;-89
2022/10/26 07:27:28;;;;;;;18.42;6.60;;;10.70;99.90;;;;;;4219074;28;20052;-88
2022/10/26 07:29:28;;;;;;;15.40;6.07;;;10.80;99.90;;;;;;4219106;28;20046;-88
2022/10/26 07:31:29;;;;;;;15.48;6.57;;;10.80;99.90;;;;;;4219687;28;20090;-89
2022/10/26 07:33:30;;;;;;;12.50;5.75;;;10.90;99.90;;;;;;4237196;28;20043;-88
2022/10/26 07:35:32;;;;;;;16.92;6.28;;;10.90;99.90;;;;;;4236732;28;20059;-89
2022/10/26 07:37:33;;;;;;;16.92;5.95;;;10.90;99.90;;;;;;4239255;28;20036;-88
2022/10/26 07:39:34;;;;;;;13.55;6.18;;;10.90;99.90;;;;;;4241271;28;20083;-88
2022/10/26 07:41:35;;;;;;;13.85;6.15;;;11.00;99.90;;;;;;4243757;28;20036;-88
2022/10/26 07:43:37;;;;;;;14.90;5.97;;;11.00;99.90;;;;;;4224307;28;20040;-88
2022/10/26 07:45:39;;;;;;;10.98;5.68;;;11.10;99.90;;;;;;4227375;28;20052;-88
2022/10/26 07:47:41;;;;;;;10.82;6.03;;;11.10;99.90;;;;;;4227679;28;20052;-88
2022/10/26 07:49:41;;;;;;;14.20;5.32;;;11.20;99.90;;;;;;4227874;28;20052;-88
2022/10/26 07:51:42;;;;;;;9.48;5.47;;;11.20;99.90;;;;;;4245142;28;20121;-88
2022/10/26 07:53:45;;;;;;;11.82;5.68;;;10.30;99.90;;;;;;4230768;28;20108;-87
2022/10/26 07:55:57;;;;;;;9.70;5.47;;;11.20;99.90;;;;;;4229489;28;20088;-88
2022/10/26 07:57:58;;;;;;;10.90;5.13;;;11.30;99.90;;;;;;4238104;28;20051;-88
2022/10/26 07:59:58;;;;;;;12.45;5.65;;;11.80;99.90;;;;;;4232935;28;20044;-88
2022/10/26 08:01:59;;;;;;;9.30;4.80;;;11.30;99.90;;;;;;4215901;28;20084;-88
2022/10/26 08:04:00;;;;;;;16.20;6.03;;;11.40;99.90;;;;;;4232239;28;20053;-89
2022/10/26 08:06:03;;;;;;;9.27;5.60;;;11.40;99.90;;;;;;4232550;28;20223;-88
2022/10/26 08:08:04;;;;;;;16.85;7.30;;;11.50;99.90;;;;;;4233256;28;20466;-89
2022/10/26 08:10:05;;;;;;;9.55;4.97;;;11.50;99.90;;;;;;4234490;28;20043;-89
2022/10/26 08:12:06;;;;;;;9.40;5.30;;;11.60;99.90;;;;;;4218144;28;20051;-89
2022/10/26 08:14:09;;;;;;;10.95;4.75;;;11.70;99.90;;;;;;4223276;28;20048;-89
2022/10/26 08:16:10;;;;;;;12.90;4.95;;;11.70;99.90;;;;;;4235615;28;20112;-88
2022/10/26 08:18:12;;;;;;;11.27;4.50;;;11.80;99.90;;;;;;4233730;28;20047;-88
2022/10/26 08:20:13;;;;;;;8.65;4.60;;;11.80;99.90;;;;;;4235019;28;20064;-88
2022/10/26 08:22:15;;;;;;;10.20;5.03;;;11.90;99.90;;;;;;4234335;28;20543;-88
2022/10/26 08:24:16;;;;;;;12.23;4.85;;;11.90;99.90;;;;;;4216492;28;20052;-88
2022/10/26 08:26:17;;;;;;;13.43;4.55;;;11.90;99.90;;;;;;4234308;28;20051;-88
2022/10/26 08:28:18;;;;;;;9.70;4.70;;;12.00;99.90;;;;;;4234409;28;20127;-88
2022/10/26 08:30:19;;;;;;;10.57;4.90;;;12.00;99.90;;;;;;4215763;28;20437;-89
2022/10/26 08:32:20;;;;;;;10.02;4.90;;;12.10;99.90;;;;;;4233979;28;20043;-88
2022/10/26 08:34:21;;;;;;;11.15;4.35;;;12.20;99.90;;;;;;4217585;28;20083;-88
2022/10/26 08:36:27;;;;;;;9.75;4.05;;;12.30;99.90;;;;;;4234613;28;20035;-88
2022/10/26 08:38:28;;;;;;;7.15;4.43;;;12.40;99.90;;;;;;4233552;28;20043;-89
2022/10/26 08:40:31;;;;;;;10.38;4.97;;;12.50;99.90;;;;;;4232005;28;20124;-89
2022/10/26 08:42:42;;;;;;;7.97;4.28;;;12.60;99.90;;;;;;4231563;28;20451;-89
2022/10/26 08:44:48;;;;;;;9.73;4.10;;;12.90;99.90;;;;;;4233306;28;20059;-90
2022/10/26 08:46:54;;;;;;;6.90;4.45;;;13.20;99.90;;;;;;4236182;28;20109;-88
2022/10/26 08:49:03;;;;;;;11.40;3.70;;;13.70;99.90;;;;;;4239581;28;20051;-89
2022/10/26 08:51:17;;;;;;;7.80;4.20;;;14.20;99.90;;;;;;4233474;28;20540;-88
2022/10/26 08:53:30;;;;;;;6.90;3.28;;;14.60;99.90;;;;;;4240616;28;20059;-88
2022/10/26 08:55:54;;;;;;;6.05;3.30;;;15.40;99.90;;;;;;4243228;28;20098;-88
2022/10/26 08:57:57;;;;;;;6.47;3.22;;;16.10;99.90;;;;;;4247277;28;20058;-87
2022/10/26 09:00:14;;;;;;;9.23;3.63;;;17.00;99.90;;;;;;4251092;28;20071;-87
2022/10/26 09:02:16;;;;;;;8.50;3.30;;;17.70;99.90;;;;;;4249252;28;20031;-88
2022/10/26 09:04:21;;;;;;;6.55;3.60;;;18.00;99.90;;;;;;4249806;28;20032;-88
2022/10/26 09:06:27;;;;;;;7.68;2.95;;;18.10;99.90;;;;;;4231461;28;20078;-88
2022/10/26 09:08:36;;;;;;;6.45;3.05;;;18.30;99.90;;;;;;4241507;28;20093;-88
2022/10/26 09:10:57;;;;;;;10.10;2.93;;;18.40;99.90;;;;;;4237398;28;20074;-89
2022/10/26 09:13:37;;;;;;;5.18;2.50;;;18.60;99.90;;;;;;4242412;28;20324;-88
2022/10/26 09:15:43;;;;;;;;;;;18.90;99.90;;;;;;4239107;28;20060;-88
2022/10/26 09:18:14;;;;;;;6.45;2.80;;;19.50;99.90;;;;;;4239133;28;20243;-88
2022/10/26 09:20:27;;;;;;;7.30;3.10;;;19.50;99.90;;;;;;4218236;28;20036;-88
2022/10/26 09:22:50;;;;;;;7.80;2.25;;;19.80;99.90;;;;;;4234809;28;20059;-88
2022/10/26 09:24:54;;;;;;;5.72;3.22;;;19.70;99.90;;;;;;4235979;28;20618;-88
2022/10/26 09:27:01;;;;;;;5.78;2.70;;;19.40;99.90;;;;;;4243629;28;20110;-88
2022/10/26 09:29:06;;;;;;;6.35;2.50;;;19.30;99.90;;;;;;4229131;28;20127;-88
2022/10/26 09:31:14;;;;;;;5.90;2.63;;;19.00;99.90;;;;;;4245669;28;20046;-88
2022/10/26 09:33:17;;;;;;;6.25;3.05;;;19.30;99.90;;;;;;4226854;28;20055;-87
2022/10/26 09:35:42;;;;;;;5.85;3.05;;;19.70;99.90;;;;;;4244510;28;20047;-88
2022/10/26 09:37:48;;;;;;;5.00;2.47;;;19.90;99.90;;;;;;4244875;28;20406;-87
2022/10/26 09:40:03;;;;;;;6.88;2.25;;;19.10;99.90;;;;;;4244171;28;20162;-86
2022/10/26 09:42:21;;;;;;;3.58;2.00;;;19.50;99.90;;;;;;4239395;28;20047;-87
2022/10/26 09:44:35;;;;;;;5.47;2.00;;;19.60;99.90;;;;;;4238089;28;20454;-87
2022/10/26 09:47:06;;;;;;;2.75;2.03;;;20.00;99.90;;;;;;4244328;28;20075;-88
2022/10/26 09:49:11;;;;;;;8.15;2.30;;;19.50;99.90;;;;;;4242809;28;20039;-87
2022/10/26 09:51:15;;;;;;;5.85;2.08;;;19.50;99.90;;;;;;4219320;28;20051;-87
2022/10/26 09:53:16;;;;;;;4.40;2.08;;;19.50;99.90;;;;;;4236226;28;20039;-87
2022/10/26 09:55:19;;;;;;;4.15;2.05;;;19.40;99.90;;;;;;4234865;28;20058;-88
2022/10/26 09:57:22;;;;;;;8.00;1.88;;;19.50;99.90;;;;;;4233538;28;20047;-90
2022/10/26 09:59:25;;;;;;;8.02;2.15;;;19.50;99.90;;;;;;4222816;28;20047;-87
2022/10/26 10:01:33;;;;;;;6.43;2.05;;;19.70;99.90;;;;;;4243776;28;20039;-88
2022/10/26 10:03:35;;;;;;;5.83;1.77;;;;;;;;;;4241144;28;20044;-87
2022/10/26 10:05:37;;;;;;;4.10;1.73;;;;;;;;;;4237092;28;20835;-86
2022/10/26 10:07:38;;;;;;;4.65;1.65;;;;;;;;;;4234380;28;20070;-87
2022/10/26 10:09:40;;;;;;;3.92;1.48;;;;;;;;;;4234272;28;20477;-86
2022/10/26 10:11:53;;;;;;;2.70;1.48;;;20.10;99.90;;;;;;4236171;28;20499;-87
2022/10/26 10:14:03;;;;;;;7.85;1.40;;;20.10;99.90;;;;;;4218565;28;20044;-87
2022/10/26 10:16:23;;;;;;;2.28;1.63;;;19.90;99.90;;;;;;4235629;28;20101;-88
2022/10/26 10:18:25;;;;;;;5.90;1.52;;;20.20;99.90;;;;;;4238934;28;20378;-88
2022/10/26 10:20:34;;;;;;;6.38;1.50;;;20.30;99.90;;;;;;4219593;28;20055;-87
2022/10/26 10:22:51;;;;;;;4.35;1.92;;;20.30;99.90;;;;;;4236620;28;20046;-87
2022/10/26 10:24:56;;;;;;;6.03;1.35;;;20.20;99.90;;;;;;4236154;28;20059;-87
2022/10/26 10:27:15;;;;;;;3.80;1.30;;;20.10;99.90;;;;;;4236838;28;20097;-87
2022/10/26 10:29:17;;;;;;;2.88;1.52;;;20.00;99.30;;;;;;4235867;28;20539;-87
2022/10/26 10:31:20;;;;;;;4.85;1.10;;;21.20;99.90;;;;;;4219408;28;20052;-87
2022/10/26 10:33:21;;;;;;;6.28;1.25;;;20.40;99.90;;;;;;4235812;28;20059;-88
2022/10/26 10:35:28;;;;;;;2.70;1.20;;;20.10;99.70;;;;;;4237294;28;20047;-87
2022/10/26 10:37:44;;;;;;;2.95;1.20;;;20.40;99.30;;;;;;4218715;28;20040;-87
2022/10/26 10:39:46;;;;;;;2.95;1.20;;;20.50;98.00;;;;;;4236934;28;20083;-88
2022/10/26 10:41:48;;;;;;;5.10;1.20;;;19.80;98.90;;;;;;4238115;28;20058;-88
2022/10/26 10:43:54;;;;;;;3.30;1.38;;;19.60;99.20;;;;;;4242280;28;20043;-87
2022/10/26 10:45:57;;;;;;;6.15;1.30;;;19.40;99.20;;;;;;4227115;28;20065;-87
2022/10/26 10:48:11;;;;;;;4.38;1.30;;;19.30;99.60;;;;;;4243217;28;20048;-88
2022/10/26 10:50:19;;;;;;;2.22;1.20;;;19.20;99.40;;;;;;4245734;28;20070;-88
2022/10/26 10:52:31;;;;;;;3.05;1.15;;;19.00;99.40;;;;;;4246053;28;20054;-87